Time;durP1;ratioP1;P1;durP2;ratioP2;P2;SDS_P1;SDS_P2;PMS_P1;PMS_P2;Temp;Humidity;BMP_temperature;BMP_pressure;BME280_temperature;BME280_humidity;BME280_pressure;Samples;Min_cycle;Max_cycle;Signal;HPM_P1;HPM_P2
2021/03/28 00:33:08;;;;;;;;;;;;;;;10.47;35.08;101645.56;4542408;31;19946;-75
2021/03/28 01:24:32;;;;;;;;;;;;;;;;;;;;;
2021/03/28 01:31:13;;;;;;;;;;;;;;;10.43;34.73;101673.81;4969144;28;19933;-75
2021/03/28 01:34:53;;;;;;;;;;;;;;;10.42;35.11;101668.56;4969892;28;19926;-75
2021/03/28 01:37:37;;;;;;;;;;;;;;;10.37;35.28;101673.03;4967616;28;19958;-76
2021/03/28 01:48:38;;;;;;;;;;;;;;;10.22;38.05;101689.94;4932481;29;20006;-76
2021/03/28 01:51:43;;;;;;;;;;;;;;;10.25;37.44;101676.66;4945891;28;19935;-76
2021/03/28 01:55:18;;;;;;;;;;;;;;;10.27;36.76;101675.75;4942399;28;19944;-76
2021/03/28 01:58:30;;;;;;;;;;;;;;;;;;;;;
2021/03/28 02:06:19;;;;;;;;;;;;;;;10.32;35.64;101680.97;4995863;28;19952;-76
2021/03/28 02:13:00;;;;;;;;;;;;;;;10.36;35.88;101687.13;5024376;28;19932;-75
2021/03/28 02:30:58;;;;;;;;;;;;;;;10.32;35.21;101701.25;5030367;28;19933;-75
2021/03/28 02:33:27;;;;;;;;;;;;;;;10.32;35.04;101703.91;5023169;28;20429;-75
2021/03/28 02:35:58;;;;;;;;;;;;;;;10.31;35.32;101705.69;5033547;28;19964;-76
2021/03/28 02:38:46;;;;;;;;;;;;;;;10.22;35.98;101708.44;5020022;28;19928;-75
2021/03/28 02:41:16;;;;;;;;;;;;;;;10.10;37.24;101699.72;5032647;28;19924;-75
2021/03/28 02:43:45;;;;;;;;;;;;;;;10.05;37.86;101698.91;5016227;28;19933;-76
2021/03/28 02:46:23;;;;;;;;;;;;;;;10.05;38.59;101696.25;5021094;28;19955;-75
2021/03/28 02:49:08;;;;;;;;;;;;;;;10.09;38.21;101697.97;5035395;28;19973;-75
2021/03/28 02:51:49;;;;;;;;;;;;;;;10.16;37.62;101692.63;5038186;28;19988;-75
2021/03/28 02:54:42;;;;;;;;;;;;;;;10.16;37.00;101689.97;5013687;28;20547;-75
2021/03/28 02:57:25;;;;;;;;;;;;;;;10.20;36.23;101697.84;5034850;28;19933;-76
2021/03/28 03:00:04;;;;;;;;;;;;;;;10.18;36.21;101694.38;5029736;28;19982;-76
2021/03/28 03:02:50;;;;;;;;;;;;;;;10.19;35.94;101692.59;5021340;28;19940;-75
2021/03/28 03:05:25;;;;;;;;;;;;;;;10.20;36.41;101696.97;5039301;28;22818;-76
2021/03/28 03:07:55;;;;;;;;;;;;;;;10.18;35.85;101704.03;5097486;27;19943;-76
2021/03/28 03:10:43;;;;;;;;;;;;;;;10.18;35.62;101701.41;5116470;27;19970;-76
2021/03/28 03:13:15;;;;;;;;;;;;;;;10.19;35.62;101701.41;5100244;27;19943;-76
2021/03/28 03:15:47;;;;;;;;;;;;;;;10.19;35.94;101700.50;5116714;27;19939;-75
2021/03/28 03:18:33;;;;;;;;;;;;;;;10.19;35.71;101701.41;5123496;27;19935;-76
2021/03/28 03:21:21;;;;;;;;;;;;;;;10.20;35.37;101703.13;5096230;27;19982;-75
2021/03/28 03:24:11;;;;;;;;;;;;;;;10.19;35.77;101708.44;5103906;28;20415;-76
2021/03/28 03:26:56;;;;;;;;;;;;;;;10.19;35.61;101711.09;5122896;27;19935;-76
2021/03/28 03:29:46;;;;;;;;;;;;;;;10.19;35.40;101709.34;5099845;28;19932;-76
2021/03/28 03:32:21;;;;;;;;;;;;;;;10.18;35.14;101711.97;5097850;27;19932;-76
2021/03/28 03:34:55;;;;;;;;;;;;;;;10.19;35.47;101719.03;5115315;27;19928;-76
2021/03/28 03:37:33;;;;;;;;;;;;;;;10.10;35.92;101728.81;5121109;27;20095;-76
2021/03/28 03:40:19;;;;;;;;;;;;;;;9.96;38.11;101731.56;5115917;27;19932;-76
2021/03/28 03:43:06;;;;;;;;;;;;;;;9.89;37.90;101729.00;5115666;27;19928;-75
2021/03/28 03:45:57;;;;;;;;;;;;;;;9.87;38.88;101733.44;5114078;27;19927;-76
2021/03/28 03:48:28;;;;;;;;;;;;;;;9.91;38.80;101735.16;5118277;27;19991;-76
2021/03/28 03:51:01;;;;;;;;;;;;;;;9.95;37.91;101731.59;5113116;27;19924;-76
2021/03/28 03:53:37;;;;;;;;;;;;;;;9.97;36.91;101727.19;5098457;27;20342;-75
2021/03/28 03:56:09;;;;;;;;;;;;;;;10.01;36.83;101728.91;5100721;27;19928;-75
2021/03/28 03:58:38;;;;;;;;;;;;;;;10.00;36.47;101727.13;5098846;27;19941;-75
2021/03/28 04:01:18;;;;;;;;;;;;;;;10.02;36.22;101735.06;5122748;27;19927;-76
2021/03/28 04:03:53;;;;;;;;;;;;;;;10.02;35.72;101732.41;5119643;27;19939;-76
2021/03/28 04:06:27;;;;;;;;;;;;;;;10.04;35.88;101738.56;5121443;27;19931;-75
2021/03/28 04:09:03;;;;;;;;;;;;;;;10.03;35.15;101748.25;5110754;27;19946;-76
2021/03/28 04:11:52;;;;;;;;;;;;;;;10.02;35.50;101737.69;5097603;28;20559;-76
2021/03/28 04:14:31;;;;;;;;;;;;;;;10.02;35.40;101729.75;5074061;28;19933;-76
2021/03/28 04:17:07;;;;;;;;;;;;;;;10.03;35.63;101732.38;5077847;28;20023;-76
2021/03/28 04:19:39;;;;;;;;;;;;;;;10.02;35.01;101728.00;5071059;28;20630;-75
2021/03/28 04:22:27;;;;;;;;;;;;;;;10.02;34.76;101729.75;5071483;28;19967;-76
2021/03/28 04:25:02;;;;;;;;;;;;;;;10.03;35.23;101732.38;5050883;28;19932;-75
2021/03/28 04:27:42;;;;;;;;;;;;;;;10.01;34.80;101736.84;5071342;28;19924;-76
2021/03/28 04:30:25;;;;;;;;;;;;;;;10.02;34.87;101741.22;5060191;28;19947;-76
2021/03/28 04:32:57;;;;;;;;;;;;;;;10.00;35.14;101742.13;5073834;28;19933;-76
2021/03/28 04:35:39;;;;;;;;;;;;;;;10.02;34.76;101743.88;5075448;28;19939;-75
2021/03/28 04:38:27;;;;;;;;;;;;;;;9.91;35.25;101743.09;5065651;28;19934;-75
2021/03/28 04:41:01;;;;;;;;;;;;;;;9.78;37.08;101752.88;5064924;28;19950;-75
2021/03/28 04:43:55;;;;;;;;;;;;;;;9.73;38.10;101744.09;5076924;28;19924;-75
2021/03/28 04:46:40;;;;;;;;;;;;;;;9.76;38.06;101744.97;5069414;28;19932;-76
2021/03/28 04:49:25;;;;;;;;;;;;;;;9.82;37.29;101743.16;5077974;28;19924;-76
2021/03/28 04:52:36;;;;;;;;;;;;;;;9.85;36.68;101741.38;5068879;28;19979;-76
2021/03/28 04:55:28;;;;;;;;;;;;;;;9.92;36.21;101747.50;5072371;28;19927;-76
2021/03/28 04:58:11;;;;;;;;;;;;;;;9.93;35.74;101754.53;5094349;28;20163;-75
2021/03/28 05:00:59;;;;;;;;;;;;;;;9.94;35.70;101757.16;5093220;28;19931;-75
2021/03/28 05:03:38;;;;;;;;;;;;;;;9.97;35.41;101754.47;5059994;28;19946;-75
2021/03/28 05:06:14;;;;;;;;;;;;;;;9.98;35.89;101758.03;5054547;28;19935;-75
2021/03/28 05:08:55;;;;;;;;;;;;;;;10.01;35.52;101760.63;5074121;28;20441;-75
2021/03/28 05:11:35;;;;;;;;;;;;;;;10.01;35.21;101757.09;5077231;28;19987;-75
2021/03/28 05:14:21;;;;;;;;;;;;;;;10.01;35.38;101754.44;5076145;28;19932;-76
2021/03/28 05:17:01;;;;;;;;;;;;;;;10.03;35.00;101755.31;5114879;28;19932;-76
2021/03/28 05:19:58;;;;;;;;;;;;;;;10.05;35.29;101756.19;5092867;28;19938;-75
2021/03/28 05:22:46;;;;;;;;;;;;;;;10.06;35.27;101756.19;5096351;28;19981;-78
2021/03/28 05:25:28;;;;;;;;;;;;;;;10.08;34.95;101756.16;5112386;28;19928;-76
2021/03/28 05:28:06;;;;;;;;;;;;;;;10.14;34.70;101746.41;5061505;28;19928;-76
2021/03/28 05:30:46;;;;;;;;;;;;;;;10.19;35.02;101750.75;5097231;28;19928;-75
2021/03/28 05:33:44;;;;;;;;;;;;;;;10.29;34.38;101749.78;5113352;28;19954;-75
2021/03/28 05:36:26;;;;;;;;;;;;;;;10.41;34.34;101751.44;5109373;28;19938;-75
2021/03/28 05:39:20;;;;;;;;;;;;;;;10.41;35.24;101755.00;5092580;28;20147;-76
2021/03/28 05:42:11;;;;;;;;;;;;;;;10.39;35.95;101751.47;5096469;28;20007;-75
2021/03/28 05:45:02;;;;;;;;;;;;;;;10.42;37.17;101754.06;5110612;28;19928;-75
2021/03/28 05:47:38;;;;;;;;;;;;;;;10.51;37.21;101758.41;5103757;28;19935;-76
2021/03/28 05:50:26;;;;;;;;;;;;;;;10.48;36.69;101762.84;5110690;28;19923;-76
2021/03/28 05:53:05;;;;;;;;;;;;;;;10.44;36.35;101749.66;5115842;28;19946;-76
2021/03/28 05:55:47;;;;;;;;;;;;;;;10.48;36.01;101752.25;5116660;27;19935;-75
2021/03/28 05:58:23;;;;;;;;;;;;;;;10.61;35.64;101764.44;5096853;27;19937;-76
2021/03/28 06:01:05;;;;;;;;;;;;;;;10.64;35.25;101761.78;5111792;28;19939;-75
2021/03/28 06:04:04;;;;;;;;;;;;;;;10.67;35.28;101756.44;5085092;28;19981;-76
2021/03/28 06:07:03;;;;;;;;;;;;;;;10.68;35.24;101760.00;5117941;28;19931;-76
2021/03/28 06:09:55;;;;;;;;;;;;;;;10.74;34.60;101751.97;5113366;28;19931;-76
2021/03/28 06:12:32;;;;;;;;;;;;;;;10.77;35.03;101760.75;5117682;27;19924;-76
2021/03/28 06:15:14;;;;;;;;;;;;;;;10.72;35.01;101743.19;5092277;28;19938;-75
2021/03/28 06:17:55;;;;;;;;;;;;;;;10.72;35.05;101754.63;5109373;27;19924;-76
2021/03/28 06:20:56;;;;;;;;;;;;;;;10.78;34.90;101746.63;5089921;28;19928;-76
2021/03/28 06:23:45;;;;;;;;;;;;;;;10.91;34.73;101741.16;5031179;28;19929;-76
2021/03/28 06:26:30;;;;;;;;;;;;;;;10.96;34.67;101752.56;5027850;28;19934;-75
2021/03/28 06:29:18;;;;;;;;;;;;;;;10.90;36.03;101747.34;5090485;27;19932;-76
2021/03/28 06:32:19;;;;;;;;;;;;;;;10.93;36.70;101748.19;5108339;28;19936;-76
2021/03/28 06:35:04;;;;;;;;;;;;;;;10.99;37.40;101756.94;5113776;28;19927;-76
2021/03/28 06:37:49;;;;;;;;;;;;;;;10.98;37.14;101760.47;5114930;27;19924;-75
2021/03/28 06:40:41;;;;;;;;;;;;;;;10.93;38.07;101752.63;5091365;28;19930;-76
2021/03/28 06:43:27;;;;;;;;;;;;;;;10.97;38.52;101751.69;5089297;28;19928;-76
2021/03/28 06:46:13;;;;;;;;;;;;;;;11.04;38.78;101755.13;5093938;28;20331;-75
2021/03/28 06:48:55;;;;;;;;;;;;;;;11.08;37.90;101754.19;5097901;28;19923;-76
2021/03/28 06:51:39;;;;;;;;;;;;;;;11.23;36.83;101761.06;5096932;28;19924;-76
2021/03/28 06:54:37;;;;;;;;;;;;;;;11.37;36.44;101758.19;5117225;27;19927;-76
2021/03/28 06:57:19;;;;;;;;;;;;;;;11.41;36.19;101760.78;5112314;28;20018;-76
2021/03/28 07:00:03;;;;;;;;;;;;;;;11.42;35.58;101754.56;5110435;28;19928;-75
2021/03/28 07:02:53;;;;;;;;;;;;;;;11.41;35.61;101763.44;5110561;27;19928;-76
2021/03/28 07:05:24;;;;;;;;;;;;;;;11.42;35.24;101762.50;5095312;28;20403;-76
2021/03/28 07:08:08;;;;;;;;;;;;;;;11.53;35.00;101767.69;5112465;28;19934;-76
2021/03/28 07:10:44;;;;;;;;;;;;;;;11.62;34.66;101771.94;5112302;27;19932;-76
2021/03/28 07:13:21;;;;;;;;;;;;;;;11.72;34.87;101765.59;5108305;27;19928;-76
2021/03/28 07:15:54;;;;;;;;;;;;;;;11.79;34.17;101767.28;5113926;27;19966;-75
2021/03/28 07:18:36;;;;;;;;;;;;;;;11.81;34.25;101753.13;5112373;28;19928;-76
2021/03/28 07:21:09;;;;;;;;;;;;;;;11.87;34.77;101772.44;5112919;27;19938;-77
2021/03/28 07:24:03;;;;;;;;;;;;;;;12.01;33.90;101761.63;5111971;28;20608;-76
2021/03/28 07:26:45;;;;;;;;;;;;;;;12.13;33.75;101768.50;5110011;28;19948;-76
2021/03/28 07:29:29;;;;;;;;;;;;;;;12.21;33.74;101771.91;5103467;28;19924;-76
2021/03/28 07:32:17;;;;;;;;;;;;;;;12.29;33.36;101774.41;5091711;28;19995;-76
2021/03/28 07:35:18;;;;;;;;;;;;;;;12.32;34.00;101773.47;5092498;28;20004;-76
2021/03/28 07:45:52;;;;;;;;;;;;;;;;;;;;;
2021/03/28 07:48:53;;;;;;;;;;;;;;;12.29;36.21;101772.63;5090133;27;19997;-76
2021/03/28 07:55:38;;;;;;;;;;;;;;;13.15;33.66;101779.78;5099240;28;19971;-78
2021/03/28 07:58:32;;;;;;;;;;;;;;;13.72;32.66;101781.19;5067306;22;20019;-77
2021/03/28 08:01:23;;;;;;;;;;;;;;;14.71;31.23;101785.78;5032883;28;19979;-78
2021/03/28 08:04:03;;;;;;;;;;;;;;;14.89;30.51;101787.91;5033306;28;19925;-79
2021/03/28 08:11:25;;;;;;;;;;;;;;;14.13;32.09;101788.16;5032603;28;19928;-78
2021/03/28 08:17:23;;;;;;;;;;;;;;;13.68;33.08;101775.97;5032360;28;19936;-79
2021/03/28 08:20:01;;;;;;;;;;;;;;;13.52;32.90;101781.66;5033126;28;20020;-80
2021/03/28 08:22:38;;;;;;;;;;;;;;;13.56;33.18;101787.78;5032088;28;20375;-80
2021/03/28 08:25:31;;;;;;;;;;;;;;;13.75;32.77;101774.94;5032372;28;20354;-79
2021/03/28 08:28:17;;;;;;;;;;;;;;;13.92;32.21;101770.06;5032726;28;20035;-81
2021/03/28 08:30:49;;;;;;;;;;;;;;;14.02;32.45;101772.47;5032523;28;19965;-77
2021/03/28 08:33:37;;;;;;;;;;;;;;;14.14;31.94;101769.50;5031123;28;20468;-77
2021/03/28 08:39:58;;;;;;;;;;;;;;;13.72;33.64;101789.16;5032927;28;19967;-78
2021/03/28 08:42:46;;;;;;;;;;;;;;;13.43;34.68;101777.44;5030897;28;20391;-77
2021/03/28 08:45:32;;;;;;;;;;;;;;;13.21;35.90;101792.94;5032485;28;20240;-77
2021/03/28 08:48:10;;;;;;;;;;;;;;;13.36;34.90;101789.09;5032425;28;19998;-77
2021/03/28 08:54:46;;;;;;;;;;;;;;;13.94;32.63;101786.84;5032364;28;19932;-77
2021/03/28 08:57:32;;;;;;;;;;;;;;;14.49;31.58;101778.31;5032243;28;19933;-77
2021/03/28 09:00:20;;;;;;;;;;;;;;;14.65;30.58;101777.94;5032188;28;20391;-77
2021/03/28 09:03:13;;;;;;;;;;;;;;;14.50;30.99;101773.88;5031860;28;20371;-77
2021/03/28 09:05:45;;;;;;;;;;;;;;;14.59;30.55;101778.94;5031790;28;20348;-77
2021/03/28 09:08:21;;;;;;;;;;;;;;;14.96;30.20;101783.28;5032197;28;20341;-77
2021/03/28 09:11:08;;;;;;;;;;;;;;;15.67;28.75;101775.75;5032181;28;19945;-77
2021/03/28 09:13:44;;;;;;;;;;;;;;;16.05;28.17;101768.31;5032185;28;19925;-77
2021/03/28 09:16:18;;;;;;;;;;;;;;;16.42;27.95;101764.34;5031757;28;19990;-77
2021/03/28 09:18:49;;;;;;;;;;;;;;;16.97;27.15;101765.03;5031644;28;20419;-77
2021/03/28 09:21:37;;;;;;;;;;;;;;;16.73;27.56;101760.56;5031406;28;19987;-77
2021/03/28 09:27:30;;;;;;;;;;;;;;;16.35;28.30;101762.81;5035886;28;20384;-77
2021/03/28 09:30:12;;;;;;;;;;;;;;;16.43;28.12;101762.56;5035861;28;20395;-77
2021/03/28 09:32:59;;;;;;;;;;;;;;;16.48;28.15;101749.91;5035190;28;20284;-77
2021/03/28 09:35:46;;;;;;;;;;;;;;;16.39;28.27;101751.09;5029247;28;19979;-77
2021/03/28 09:38:48;;;;;;;;;;;;;;;16.16;29.51;101751.91;5035767;28;19932;-77
2021/03/28 09:41:23;;;;;;;;;;;;;;;16.01;30.33;101752.44;5035521;28;20388;-77
2021/03/28 09:43:57;;;;;;;;;;;;;;;15.87;31.16;101758.25;5035553;28;20268;-77
2021/03/28 09:46:36;;;;;;;;;;;;;;;15.51;31.72;101750.50;5035120;28;19933;-77
2021/03/28 09:49:39;;;;;;;;;;;;;;;15.42;31.46;101757.88;5035586;28;19991;-79
2021/03/28 09:52:36;;;;;;;;;;;;;;;15.31;31.24;101753.78;5035675;28;20248;-77
2021/03/28 09:55:19;;;;;;;;;;;;;;;15.18;30.96;101756.84;5035494;28;19933;-77
2021/03/28 09:58:07;;;;;;;;;;;;;;;15.22;30.71;101747.84;5039288;28;20302;-77
2021/03/28 10:04:37;;;;;;;;;;;;;;;15.26;30.43;101754.81;5054998;28;19927;-77
2021/03/28 10:07:08;;;;;;;;;;;;;;;15.37;30.21;101748.28;5054893;28;20387;-77
2021/03/28 10:09:48;;;;;;;;;;;;;;;15.46;29.75;101749.75;5055033;28;20284;-77
2021/03/28 10:12:19;;;;;;;;;;;;;;;15.58;29.63;101744.06;5036782;28;19925;-77
2021/03/28 10:14:57;;;;;;;;;;;;;;;15.54;29.41;101745.94;5054667;28;20332;-77
2021/03/28 10:17:39;;;;;;;;;;;;;;;15.64;29.28;101735.84;5054236;28;20380;-78
2021/03/28 10:23:35;;;;;;;;;;;;;;;15.76;29.09;101748.78;5054633;28;19925;-77
2021/03/28 10:26:34;;;;;;;;;;;;;;;15.84;29.14;101750.38;5054814;28;20279;-77
2021/03/28 10:29:42;;;;;;;;;;;;;;;15.76;29.03;101746.09;5055960;28;20375;-79
2021/03/28 10:32:33;;;;;;;;;;;;;;;15.69;29.30;101741.91;5050843;28;20363;-82
2021/03/28 10:35:22;;;;;;;;;;;;;;;15.62;29.46;101742.16;5050059;28;19936;-78
2021/03/28 10:38:01;;;;;;;;;;;;;;;15.42;30.56;101741.88;5054584;28;19933;-78
2021/03/28 10:40:42;;;;;;;;;;;;;;;15.18;31.61;101738.19;5054142;28;20372;-77
2021/03/28 10:43:23;;;;;;;;;;;;;;;15.00;32.49;101744.09;5053755;28;20395;-77
2021/03/28 10:46:02;;;;;;;;;;;;;;;14.87;33.28;101744.44;5053868;28;20584;-76
2021/03/28 10:48:55;;;;;;;;;;;;;;;14.91;32.30;101753.22;5036471;28;19929;-79
2021/03/28 10:51:52;;;;;;;;;;;;;;;15.04;31.88;101749.25;5054331;28;20272;-78
2021/03/28 10:54:46;;;;;;;;;;;;;;;15.20;31.21;101749.66;5053993;28;20371;-78
2021/03/28 10:57:34;;;;;;;;;;;;;;;15.39;30.56;101743.75;5053867;28;19931;-78
2021/03/28 11:00:36;;;;;;;;;;;;;;;15.49;30.35;101747.88;5014117;28;20012;-76
2021/03/28 11:03:32;;;;;;;;;;;;;;;15.66;29.78;101744.66;5012657;28;20388;-77
2021/03/28 11:06:19;;;;;;;;;;;;;;;16.06;29.20;101743.34;5014254;28;20016;-78
2021/03/28 11:09:42;;;;;;;;;;;;;;;16.45;28.51;101743.81;5014055;28;19952;-78
2021/03/28 11:12:18;;;;;;;;;;;;;;;17.02;27.56;101745.25;4936984;29;20373;-79
2021/03/28 11:15:07;;;;;;;;;;;;;;;17.54;26.72;101741.44;4953796;29;19926;-78
2021/03/28 11:17:51;;;;;;;;;;;;;;;17.84;26.24;101739.28;4982972;28;20280;-77
2021/03/28 11:20:28;;;;;;;;;;;;;;;17.78;26.50;101746.69;5014230;28;20284;-77
2021/03/28 11:23:17;;;;;;;;;;;;;;;18.01;26.29;101735.06;5013874;28;20317;-77
2021/03/28 11:26:04;;;;;;;;;;;;;;;18.56;25.42;101732.59;5013111;28;20430;-78
2021/03/28 11:28:51;;;;;;;;;;;;;;;19.26;24.62;101733.91;5013601;28;19940;-77
2021/03/28 11:31:31;;;;;;;;;;;;;;;19.64;24.23;101723.09;5013394;28;19980;-78
2021/03/28 11:34:04;;;;;;;;;;;;;;;19.59;24.48;101726.00;5013563;28;20368;-76
2021/03/28 11:37:34;;;;;;;;;;;;;;;18.35;26.75;101717.50;5013815;28;20347;-80
2021/03/28 11:44:00;;;;;;;;;;;;;;;17.56;29.55;101718.19;5087318;23;20046;-74
2021/03/28 11:46:36;;;;;;;;;;;;;;;17.42;29.90;101714.25;5045126;28;19941;-77
2021/03/28 11:49:10;;;;;;;;;;;;;;;17.52;29.39;101724.56;5066948;28;19928;-76
2021/03/28 11:52:06;;;;;;;;;;;;;;;17.76;28.80;101720.88;5061627;28;19924;-77
2021/03/28 11:54:33;;;;;;;;;;;;;;;17.67;28.66;101720.41;5044223;28;19964;-76
2021/03/28 11:57:15;;;;;;;;;;;;;;;17.82;28.15;101713.50;5046190;28;19932;-76
2021/03/28 11:59:44;;;;;;;;;;;;;;;17.82;28.12;101714.41;5049361;28;19933;-76
2021/03/28 12:02:27;;;;;;;;;;;;;;;18.02;27.61;101715.38;5064680;28;19928;-78
2021/03/28 12:05:13;;;;;;;;;;;;;;;17.90;30.75;101703.38;5043990;28;19986;-74
2021/03/28 12:07:43;;;;;;;;;;;;;;;18.14;31.81;101711.31;5063315;28;20470;-78
2021/03/28 12:10:16;;;;;;;;;;;;;;;18.28;30.51;101713.34;5066863;28;19936;-79
2021/03/28 12:13:04;;;;;;;;;;;;;;;18.52;29.42;101704.22;5064212;28;19933;-79
2021/03/28 12:15:51;;;;;;;;;;;;;;;18.40;29.35;101700.28;5042944;28;19928;-80
2021/03/28 12:18:25;;;;;;;;;;;;;;;18.23;29.33;101695.69;5067437;28;19996;-80
2021/03/28 12:21:07;;;;;;;;;;;;;;;18.13;29.16;101689.00;5059116;28;19940;-80
2021/03/28 12:23:42;;;;;;;;;;;;;;;18.42;28.47;101689.50;5064344;28;19925;-80
2021/03/28 12:26:50;;;;;;;;;;;;;;;18.39;28.46;101690.50;5057185;28;19935;-77
2021/03/28 12:29:35;;;;;;;;;;;;;;;18.35;28.38;101688.91;5046557;28;19924;-79
2021/03/28 12:32:27;;;;;;;;;;;;;;;18.58;27.81;101678.94;5065534;28;19971;-78
2021/03/28 12:35:14;;;;;;;;;;;;;;;18.31;28.26;101691.81;5057192;28;19943;-81
2021/03/28 12:37:42;;;;;;;;;;;;;;;17.92;29.19;101694.34;5057491;28;20702;-77
2021/03/28 12:40:22;;;;;;;;;;;;;;;17.61;30.39;101700.13;5061945;28;19931;-77
2021/03/28 12:42:50;;;;;;;;;;;;;;;17.43;31.08;101699.94;5066502;28;19928;-80
2021/03/28 12:45:33;;;;;;;;;;;;;;;17.25;31.97;101706.91;5046278;28;20384;-79
2021/03/28 12:48:01;;;;;;;;;;;;;;;17.05;31.82;101696.16;5050715;28;20522;-77
2021/03/28 12:50:31;;;;;;;;;;;;;;;16.99;31.71;101699.06;5042478;28;20511;-77
2021/03/28 12:53:05;;;;;;;;;;;;;;;16.98;33.11;101703.53;5060909;28;20272;-81
2021/03/28 12:55:42;;;;;;;;;;;;;;;17.16;35.87;101696.56;5067321;28;20358;-85
2021/03/28 12:58:13;;;;;;;;;;;;;;;17.05;34.82;101698.81;5069029;28;20307;-79
2021/03/28 13:00:44;;;;;;;;;;;;;;;16.91;34.31;101707.38;5051876;28;19928;-79
2021/03/28 13:03:14;;;;;;;;;;;;;;;16.75;33.95;101710.59;5043801;28;19924;-79
2021/03/28 13:06:01;;;;;;;;;;;;;;;16.65;33.44;101706.56;5074726;28;19928;-79
2021/03/28 13:08:29;;;;;;;;;;;;;;;16.59;33.10;101701.44;5068442;28;19936;-80
2021/03/28 13:10:59;;;;;;;;;;;;;;;16.68;32.57;101705.53;5064176;28;19936;-80
2021/03/28 13:13:27;;;;;;;;;;;;;;;16.69;32.20;101709.94;5050548;28;19956;-80
2021/03/28 13:15:55;;;;;;;;;;;;;;;16.75;31.85;101707.06;5044679;28;19943;-79
2021/03/28 13:18:24;;;;;;;;;;;;;;;16.85;31.40;101705.78;5063099;28;19989;-78
2021/03/28 13:20:53;;;;;;;;;;;;;;;16.86;31.37;101709.31;5062322;28;19956;-79
2021/03/28 13:23:28;;;;;;;;;;;;;;;16.85;31.16;101710.22;5067825;28;19975;-79
2021/03/28 13:26:10;;;;;;;;;;;;;;;16.74;31.20;101702.63;5064908;28;19932;-80
2021/03/28 13:28:38;;;;;;;;;;;;;;;16.72;31.25;101691.16;5049455;28;20343;-80
2021/03/28 13:31:16;;;;;;;;;;;;;;;16.81;30.98;101690.81;5056489;28;20343;-80
2021/03/28 13:33:46;;;;;;;;;;;;;;;16.79;30.79;101691.78;5066223;28;19951;-79
2021/03/28 13:36:17;;;;;;;;;;;;;;;16.76;31.25;101698.13;5048943;28;19936;-79
2021/03/28 13:38:57;;;;;;;;;;;;;;;16.45;32.35;101693.06;5063521;28;20014;-78
2021/03/28 13:41:26;;;;;;;;;;;;;;;16.29;33.14;101693.63;5065798;28;19924;-79
2021/03/28 13:44:02;;;;;;;;;;;;;;;16.25;33.64;101678.63;5060097;28;19972;-80
2021/03/28 13:46:29;;;;;;;;;;;;;;;16.29;33.51;101682.06;5039617;28;20187;-79
2021/03/28 13:49:01;;;;;;;;;;;;;;;16.23;33.26;101680.47;5046988;28;19929;-79
2021/03/28 13:51:28;;;;;;;;;;;;;;;16.19;33.01;101686.88;5044376;28;20639;-79
2021/03/28 13:54:03;;;;;;;;;;;;;;;16.13;32.78;101682.63;5050652;28;19931;-79
2021/03/28 13:56:44;;;;;;;;;;;;;;;16.12;32.89;101683.53;5048597;28;19933;-80
2021/03/28 13:59:15;;;;;;;;;;;;;;;16.09;32.44;101684.53;5036845;28;19936;-79
2021/03/28 14:01:49;;;;;;;;;;;;;;;16.08;32.34;101680.09;5044018;28;19933;-79
2021/03/28 14:04:19;;;;;;;;;;;;;;;16.07;32.69;101672.16;5048954;28;20028;-79
2021/03/28 14:06:47;;;;;;;;;;;;;;;16.00;32.27;101671.50;5046268;28;19929;-78
2021/03/28 14:09:17;;;;;;;;;;;;;;;15.87;32.58;101672.88;5046555;28;19947;-80
2021/03/28 14:11:51;;;;;;;;;;;;;;;15.87;32.41;101670.22;5046064;28;19936;-80
2021/03/28 14:14:21;;;;;;;;;;;;;;;15.86;32.39;101671.97;5049728;28;19924;-79
2021/03/28 14:16:49;;;;;;;;;;;;;;;15.87;32.18;101683.53;5049518;28;19956;-79
2021/03/28 14:19:21;;;;;;;;;;;;;;;15.93;32.11;101670.84;5051329;28;19974;-79
2021/03/28 14:21:48;;;;;;;;;;;;;;;15.96;31.90;101666.34;5050682;28;19929;-78
2021/03/28 14:24:26;;;;;;;;;;;;;;;15.90;32.29;101676.31;5052506;28;20336;-78
2021/03/28 14:26:54;;;;;;;;;;;;;;;15.80;32.37;101669.53;5042248;28;19929;-79
2021/03/28 14:29:33;;;;;;;;;;;;;;;15.75;32.06;101666.13;5046491;28;19929;-78
2021/03/28 14:32:07;;;;;;;;;;;;;;;15.63;32.40;101662.09;5051867;28;19970;-78
2021/03/28 14:34:53;;;;;;;;;;;;;;;15.56;32.60;101668.53;5047824;28;19933;-78
2021/03/28 14:37:41;;;;;;;;;;;;;;;15.47;33.00;101658.19;5048118;28;19928;-80
2021/03/28 14:40:24;;;;;;;;;;;;;;;15.33;34.06;101662.19;5044259;28;19929;-80
2021/03/28 14:43:00;;;;;;;;;;;;;;;15.23;34.84;101650.97;5045036;28;20498;-79
2021/03/28 14:45:33;;;;;;;;;;;;;;;15.17;35.43;101656.50;5070142;28;19931;-77
2021/03/28 14:48:10;;;;;;;;;;;;;;;15.25;34.82;101657.09;5068708;28;20175;-77
2021/03/28 14:50:40;;;;;;;;;;;;;;;15.30;34.55;101648.97;5069165;28;19935;-77
2021/03/28 14:53:16;;;;;;;;;;;;;;;15.27;34.13;101649.06;5067109;28;20110;-78
2021/03/28 14:55:53;;;;;;;;;;;;;;;15.29;33.75;101644.56;5064418;28;20213;-77
2021/03/28 14:58:35;;;;;;;;;;;;;;;15.25;33.82;101637.59;5070577;28;19925;-74
2021/03/28 15:01:08;;;;;;;;;;;;;;;15.24;33.24;101635.84;5068705;28;19925;-75
2021/03/28 15:03:45;;;;;;;;;;;;;;;15.22;33.17;101632.34;5070655;28;19936;-75
2021/03/28 15:06:23;;;;;;;;;;;;;;;15.24;33.00;101622.50;5066275;28;19937;-77
2021/03/28 15:08:52;;;;;;;;;;;;;;;15.25;32.63;101611.78;5050521;28;19929;-76
2021/03/28 15:11:22;;;;;;;;;;;;;;;15.17;32.78;101611.19;5069667;28;20371;-77
2021/03/28 15:13:56;;;;;;;;;;;;;;;15.13;33.25;101622.88;5071365;28;19929;-76
2021/03/28 15:16:31;;;;;;;;;;;;;;;15.09;33.08;101616.75;5053959;28;19932;-75
2021/03/28 15:19:12;;;;;;;;;;;;;;;15.08;32.95;101611.47;5066051;28;19929;-76
2021/03/28 15:21:47;;;;;;;;;;;;;;;15.01;33.04;101601.94;5062898;28;20150;-76
2021/03/28 15:24:23;;;;;;;;;;;;;;;14.95;33.06;101603.00;5066497;28;19928;-76
2021/03/28 15:27:07;;;;;;;;;;;;;;;14.90;33.21;101602.28;5066589;28;19929;-78
2021/03/28 15:29:35;;;;;;;;;;;;;;;14.83;33.26;101606.06;5067480;28;19929;-78
2021/03/28 15:32:24;;;;;;;;;;;;;;;14.79;33.26;101599.97;5063013;28;19968;-76
2021/03/28 15:34:59;;;;;;;;;;;;;;;14.74;33.12;101597.44;5030481;28;20216;-77
2021/03/28 15:37:36;;;;;;;;;;;;;;;14.63;34.49;101607.53;5056350;28;19928;-74
2021/03/28 15:40:17;;;;;;;;;;;;;;;14.45;35.46;101598.31;5057037;28;19925;-78
2021/03/28 15:42:47;;;;;;;;;;;;;;;14.36;36.06;101602.09;5064728;28;19965;-74
2021/03/28 15:45:38;;;;;;;;;;;;;;;14.29;36.91;101600.56;5062328;28;19944;-75
2021/03/28 15:48:13;;;;;;;;;;;;;;;14.33;36.04;101596.88;5033293;28;19929;-78
2021/03/28 15:50:47;;;;;;;;;;;;;;;14.35;35.84;101600.34;5065688;28;19928;-77
2021/03/28 15:53:18;;;;;;;;;;;;;;;14.38;35.41;101602.06;5062887;28;19929;-78
2021/03/28 15:55:48;;;;;;;;;;;;;;;14.39;34.93;101591.38;5069760;28;19951;-77
2021/03/28 15:58:38;;;;;;;;;;;;;;;14.41;34.79;101597.53;5067315;28;19936;-78
2021/03/28 16:01:20;;;;;;;;;;;;;;;14.41;34.84;101586.88;5056891;28;19929;-78
2021/03/28 16:04:05;;;;;;;;;;;;;;;14.37;34.78;101587.88;5076542;28;19935;-76
2021/03/28 16:06:47;;;;;;;;;;;;;;;14.36;34.74;101588.81;5063778;28;19932;-76
2021/03/28 16:09:25;;;;;;;;;;;;;;;14.33;35.05;101583.56;5067737;28;19928;-76
2021/03/28 16:12:19;;;;;;;;;;;;;;;14.28;35.07;101588.16;5067559;28;19932;-78
2021/03/28 16:14:54;;;;;;;;;;;;;;;14.28;35.26;101585.50;5028278;28;19996;-77
2021/03/28 16:17:27;;;;;;;;;;;;;;;14.24;35.20;101591.84;5064367;28;19925;-77
2021/03/28 16:20:14;;;;;;;;;;;;;;;14.27;35.08;101581.09;5067339;28;19982;-76
2021/03/28 16:23:05;;;;;;;;;;;;;;;14.27;34.93;101574.00;5067249;28;19928;-76
2021/03/28 16:25:51;;;;;;;;;;;;;;;14.24;35.02;101570.56;5037882;28;20368;-77
2021/03/28 16:28:21;;;;;;;;;;;;;;;14.17;35.09;101580.50;5069013;28;19944;-76
2021/03/28 16:30:53;;;;;;;;;;;;;;;14.17;35.39;101563.66;5069188;28;19935;-78
2021/03/28 16:33:45;;;;;;;;;;;;;;;14.13;35.45;101568.22;5058100;28;19997;-79